createdAt,value
2019-01-23T01:00:36.527Z,93673.50
2019-01-23T01:05:38.548Z,93675.48
2019-01-23T01:10:39.877Z,93668.64
2019-01-23T01:15:41.189Z,93663.06
2019-01-23T01:20:42.509Z,93655.95
2019-01-23T01:25:43.812Z,93654.66
2019-01-23T02:34:05.788Z,93551.55
2019-01-23T02:39:07.093Z,93541.24
2019-01-23T02:44:08.436Z,93538.34
2019-01-23T02:49:10.490Z,93524.84
2019-01-23T02:54:11.830Z,93520.67
2019-01-23T02:59:17.531Z,93513.56
2019-01-23T04:01:15.527Z,93477.64
2019-01-23T04:06:16.828Z,93475.59
2019-01-23T04:11:18.133Z,93465.33
2019-01-23T04:16:19.457Z,93463.19
2019-01-23T04:21:20.760Z,93455.94
2019-01-23T04:26:22.068Z,93459.41
2019-01-23T05:34:46.180Z,93381.98
2019-01-23T05:39:47.500Z,93379.98
2019-01-23T05:44:48.786Z,93374.73
2019-01-23T05:49:50.084Z,93369.13
2019-01-23T05:54:51.359Z,93367.97
2019-01-23T05:59:52.645Z,93362.97
2019-01-23T07:01:58.257Z,93348.20
2019-01-23T07:07:01.194Z,93344.59
2019-01-23T07:12:02.584Z,93337.56
2019-01-23T07:17:03.883Z,93343.42
2019-01-23T07:22:05.197Z,93337.97
2019-01-23T07:27:06.541Z,93339.05
2019-01-23T08:35:29.189Z,93297.41
2019-01-23T08:40:30.508Z,93289.84
2019-01-23T08:45:31.837Z,93290.66
2019-01-23T08:50:34.091Z,93289.90
2019-01-23T08:55:36.125Z,93282.78
2019-01-23T10:03:59.197Z,93242.76
2019-01-23T10:09:00.478Z,93241.92
2019-01-23T10:14:02.505Z,93236.48
2019-01-23T10:19:03.801Z,93229.23
2019-01-23T10:24:05.090Z,93225.82
2019-01-23T10:29:06.372Z,93225.30
2019-01-23T11:31:11.058Z,93169.09
2019-01-23T11:36:12.382Z,93169.47
2019-01-23T11:41:13.684Z,93163.80
2019-01-23T11:46:15.006Z,93161.65
2019-01-23T11:51:16.308Z,93150.39
2019-01-23T11:56:17.604Z,93159.75
2019-01-23T13:04:42.806Z,93142.20
2019-01-23T13:09:44.097Z,93140.67
2019-01-23T13:14:45.375Z,93142.73
2019-01-23T13:19:46.664Z,93151.88
2019-01-23T13:24:47.977Z,93150.08
2019-01-23T13:29:49.264Z,93159.87
2019-01-23T14:31:52.033Z,93187.05
2019-01-23T14:36:54.046Z,93190.94
2019-01-23T14:41:55.312Z,93186.83
2019-01-23T14:46:56.593Z,93197.22
2019-01-23T14:51:57.889Z,93201.81
2019-01-23T14:56:59.156Z,93198.30
2019-01-23T16:05:22.317Z,93234.28
2019-01-23T16:10:24.394Z,93248.23
2019-01-23T16:15:25.742Z,93248.08
2019-01-23T16:20:27.795Z,93252.96
2019-01-23T16:25:29.103Z,93253.03
2019-01-23T16:30:32.148Z,93256.66
2019-01-23T16:35:38.546Z,93257.56
2019-01-23T16:40:34.829Z,93268.32
2019-01-23T16:45:36.236Z,93272.16
2019-01-23T16:50:37.510Z,93279.78
2019-01-23T16:55:38.803Z,93286.27
2019-01-23T17:00:40.864Z,93294.69
2019-01-23T17:05:42.177Z,93290.92
2019-01-23T17:10:43.457Z,93289.56
2019-01-23T17:15:44.769Z,93294.20
2019-01-23T17:20:46.882Z,93294.90
2019-01-23T17:25:48.188Z,93304.73
2019-01-23T17:30:49.516Z,93305.64
2019-01-23T17:35:50.868Z,93306.82
2019-01-23T17:40:52.177Z,93309.93
2019-01-23T17:45:57.864Z,93312.33
2019-01-23T17:50:59.192Z,93316.87
2019-01-23T17:56:00.512Z,93322.58
2019-01-23T18:01:02.644Z,93317.92
2019-01-23T18:06:03.926Z,93320.20
2019-01-23T18:11:05.246Z,93328.64
2019-01-23T18:16:07.454Z,93320.66
2019-01-23T18:21:08.792Z,93340.09
2019-01-23T18:26:10.130Z,93336.19
2019-01-23T18:31:12.430Z,93346.15
2019-01-23T18:36:19.370Z,93342.89
2019-01-23T18:41:32.751Z,93343.48
2019-01-23T18:52:09.466Z,93359.24
2019-01-23T19:02:43.378Z,93364.31
2019-01-23T19:07:44.701Z,93359.75
2019-01-23T19:12:51.698Z,93377.73
2019-01-23T19:17:56.458Z,93379.72
2019-01-23T19:23:02.007Z,93383.81
2019-01-23T19:28:03.512Z,93382.14
2019-01-23T19:33:13.313Z,93390.74
2019-01-23T19:38:09.269Z,93393.10
2019-01-23T19:43:10.981Z,93398.14
2019-01-23T19:48:12.452Z,93406.06
2019-01-23T19:53:13.732Z,93409.75
2019-01-23T19:58:15.035Z,93416.61
2019-01-23T20:03:20.343Z,93417.64
2019-01-23T20:08:17.818Z,93420.84
2019-01-23T20:13:23.664Z,93424.67
2019-01-23T20:18:25.104Z,93434.67
2019-01-23T20:23:26.484Z,93426.20
2019-01-23T20:28:27.853Z,93431.34
2019-01-23T20:33:29.191Z,93428.53
2019-01-23T20:38:30.529Z,93431.52
2019-01-23T20:43:33.152Z,93437.38
2019-01-23T20:48:34.472Z,93442.25
2019-01-23T20:53:35.815Z,93443.78
2019-01-23T20:58:37.181Z,93443.38
2019-01-23T21:03:38.505Z,93452.80
2019-01-23T21:08:39.810Z,93462.44
2019-01-23T21:13:43.802Z,93464.23
2019-01-23T21:18:47.267Z,93480.45
2019-01-23T21:23:49.726Z,93478.75
2019-01-23T21:28:59.509Z,93481.31
2019-01-23T21:34:00.947Z,93482.58
2019-01-23T21:39:02.331Z,93494.25
2019-01-23T21:44:03.652Z,93496.55
2019-01-23T21:49:07.107Z,93504.17
2019-01-23T21:54:08.539Z,93510.47
2019-01-23T21:59:09.907Z,93510.33
2019-01-23T22:04:20.152Z,93523.71
2019-01-23T22:09:21.469Z,93526.41
2019-01-23T22:14:22.888Z,93531.20
2019-01-23T22:19:48.328Z,93538.78
2019-01-23T22:24:53.069Z,93542.20
2019-01-23T22:30:13.820Z,93556.95
2019-01-23T22:35:15.360Z,93555.98
2019-01-23T22:40:16.660Z,93561.89
2019-01-23T22:45:17.977Z,93571.94
2019-01-23T22:50:20.963Z,93582.12
2019-01-23T22:55:23.029Z,93588.22
2019-01-23T23:00:30.262Z,93597.98
2019-01-23T23:30:56.253Z,93631.36
2019-01-23T23:35:57.571Z,93640.39
2019-01-23T23:40:58.885Z,93648.76
2019-01-23T23:46:00.199Z,93652.83
2019-01-23T23:51:01.549Z,93658.34
2019-01-23T23:56:02.855Z,93670.91
